Terminal Aerodrome Forecast
Issued by NWS

Home | Current Version | Previous Version | Text Only | Print | Product List | Glossary On
Versions: 1 2 3 4 5 6 7 8 9 10 11 12 13 14 15 16 17 18 19 20 21 22
000
FTUS46 KLOX 202359
TAFVNY
TAF
KVNY 202359Z 2100/2124 17009KT P6SM BKN040
     FM210500 15005KT P6SM SCT040
     FM210800 14004KT P6SM VCSH BKN012 BKN025
     FM211600 15010KT P6SM VCSH BKN025 BKN040
     FM212000 19012KT P6SM SCT025 BKN040=

USA.gov is the U.S. government's official web portal to all federal, state and local government web resources and services.